sensor_id;sensor_type;location;lat;lon;timestamp;P1;durP1;ratioP1;P2;durP2;ratioP2
55288;SDS011;41154;45.394;5.734;2023-11-18T00:01:04;10.25;;;5.75;;
55288;SDS011;41154;45.394;5.734;2023-11-18T00:04:28;14.55;;;8.15;;
55288;SDS011;41154;45.394;5.734;2023-11-18T00:07:52;10.88;;;5.80;;
55288;SDS011;41154;45.394;5.734;2023-11-18T00:11:17;19.45;;;8.88;;
55288;SDS011;41154;45.394;5.734;2023-11-18T00:14:41;8.52;;;4.57;;
55288;SDS011;41154;45.394;5.734;2023-11-18T00:18:06;10.20;;;4.80;;
55288;SDS011;41154;45.394;5.734;2023-11-18T00:21:31;8.60;;;5.00;;
55288;SDS011;41154;45.394;5.734;2023-11-18T00:24:55;8.90;;;4.70;;
55288;SDS011;41154;45.394;5.734;2023-11-18T00:28:19;8.68;;;4.75;;
55288;SDS011;41154;45.394;5.734;2023-11-18T00:31:44;11.68;;;6.28;;
55288;SDS011;41154;45.394;5.734;2023-11-18T00:35:08;12.93;;;7.38;;
55288;SDS011;41154;45.394;5.734;2023-11-18T00:38:33;11.77;;;6.22;;
55288;SDS011;41154;45.394;5.734;2023-11-18T00:41:58;13.35;;;6.60;;
55288;SDS011;41154;45.394;5.734;2023-11-18T00:45:22;15.75;;;7.20;;
55288;SDS011;41154;45.394;5.734;2023-11-18T00:48:47;13.13;;;6.75;;
55288;SDS011;41154;45.394;5.734;2023-11-18T00:52:12;14.40;;;6.90;;
55288;SDS011;41154;45.394;5.734;2023-11-18T00:55:36;11.48;;;5.38;;
55288;SDS011;41154;45.394;5.734;2023-11-18T00:59:00;12.25;;;6.05;;
55288;SDS011;41154;45.394;5.734;2023-11-18T01:02:24;11.38;;;5.25;;
55288;SDS011;41154;45.394;5.734;2023-11-18T01:05:48;7.68;;;5.07;;
55288;SDS011;41154;45.394;5.734;2023-11-18T01:09:13;11.55;;;5.97;;
55288;SDS011;41154;45.394;5.734;2023-11-18T01:12:39;9.30;;;5.63;;
55288;SDS011;41154;45.394;5.734;2023-11-18T01:16:03;11.05;;;5.85;;
55288;SDS011;41154;45.394;5.734;2023-11-18T01:19:27;9.82;;;6.07;;
55288;SDS011;41154;45.394;5.734;2023-11-18T01:22:52;10.70;;;6.10;;
55288;SDS011;41154;45.394;5.734;2023-11-18T01:26:16;15.98;;;6.53;;
55288;SDS011;41154;45.394;5.734;2023-11-18T01:29:40;10.38;;;5.88;;
55288;SDS011;41154;45.394;5.734;2023-11-18T01:33:04;10.88;;;5.85;;
55288;SDS011;41154;45.394;5.734;2023-11-18T01:36:30;13.52;;;5.38;;
55288;SDS011;41154;45.394;5.734;2023-11-18T01:39:54;10.95;;;5.72;;
55288;SDS011;41154;45.394;5.734;2023-11-18T01:43:18;11.25;;;6.22;;
55288;SDS011;41154;45.394;5.734;2023-11-18T01:46:44;9.38;;;5.32;;
55288;SDS011;41154;45.394;5.734;2023-11-18T01:50:10;10.45;;;5.45;;
55288;SDS011;41154;45.394;5.734;2023-11-18T01:53:36;7.68;;;4.95;;
55288;SDS011;41154;45.394;5.734;2023-11-18T01:57:04;8.95;;;4.47;;
55288;SDS011;41154;45.394;5.734;2023-11-18T02:00:34;12.38;;;6.00;;
55288;SDS011;41154;45.394;5.734;2023-11-18T02:04:01;9.63;;;4.50;;
55288;SDS011;41154;45.394;5.734;2023-11-18T02:07:32;9.10;;;4.80;;
55288;SDS011;41154;45.394;5.734;2023-11-18T02:11:01;9.13;;;4.38;;
55288;SDS011;41154;45.394;5.734;2023-11-18T02:14:36;9.27;;;4.57;;
55288;SDS011;41154;45.394;5.734;2023-11-18T02:18:05;8.90;;;4.90;;
55288;SDS011;41154;45.394;5.734;2023-11-18T02:21:35;8.00;;;4.82;;
55288;SDS011;41154;45.394;5.734;2023-11-18T02:25:01;11.23;;;4.90;;
55288;SDS011;41154;45.394;5.734;2023-11-18T02:28:26;9.43;;;4.55;;
55288;SDS011;41154;45.394;5.734;2023-11-18T02:31:52;8.85;;;4.85;;
55288;SDS011;41154;45.394;5.734;2023-11-18T02:35:25;10.13;;;4.93;;
55288;SDS011;41154;45.394;5.734;2023-11-18T02:39:05;9.00;;;4.95;;
55288;SDS011;41154;45.394;5.734;2023-11-18T02:42:35;8.82;;;4.70;;
55288;SDS011;41154;45.394;5.734;2023-11-18T02:46:01;8.63;;;4.68;;
55288;SDS011;41154;45.394;5.734;2023-11-18T02:49:27;12.43;;;6.43;;
55288;SDS011;41154;45.394;5.734;2023-11-18T02:52:53;12.45;;;6.53;;
55288;SDS011;41154;45.394;5.734;2023-11-18T02:56:17;12.68;;;6.40;;
55288;SDS011;41154;45.394;5.734;2023-11-18T02:59:41;11.68;;;5.70;;
55288;SDS011;41154;45.394;5.734;2023-11-18T03:03:05;10.15;;;5.20;;
55288;SDS011;41154;45.394;5.734;2023-11-18T03:06:30;10.18;;;5.38;;
55288;SDS011;41154;45.394;5.734;2023-11-18T03:09:55;12.68;;;7.25;;
55288;SDS011;41154;45.394;5.734;2023-11-18T03:13:19;9.98;;;5.50;;
55288;SDS011;41154;45.394;5.734;2023-11-18T03:16:44;13.90;;;6.78;;
55288;SDS011;41154;45.394;5.734;2023-11-18T03:20:14;11.48;;;5.82;;
55288;SDS011;41154;45.394;5.734;2023-11-18T03:23:38;14.60;;;6.03;;
55288;SDS011;41154;45.394;5.734;2023-11-18T03:27:03;15.13;;;6.60;;
55288;SDS011;41154;45.394;5.734;2023-11-18T03:30:27;11.10;;;5.40;;
55288;SDS011;41154;45.394;5.734;2023-11-18T03:33:54;12.90;;;6.40;;
55288;SDS011;41154;45.394;5.734;2023-11-18T03:37:19;12.80;;;5.70;;
55288;SDS011;41154;45.394;5.734;2023-11-18T03:40:43;16.23;;;5.35;;
55288;SDS011;41154;45.394;5.734;2023-11-18T03:44:14;10.45;;;5.20;;
55288;SDS011;41154;45.394;5.734;2023-11-18T03:47:41;9.02;;;5.10;;
55288;SDS011;41154;45.394;5.734;2023-11-18T03:51:06;11.38;;;5.50;;
55288;SDS011;41154;45.394;5.734;2023-11-18T03:54:30;8.23;;;4.82;;
55288;SDS011;41154;45.394;5.734;2023-11-18T03:57:55;9.43;;;5.45;;
55288;SDS011;41154;45.394;5.734;2023-11-18T04:01:22;8.60;;;4.82;;
55288;SDS011;41154;45.394;5.734;2023-11-18T04:04:47;6.68;;;4.18;;
55288;SDS011;41154;45.394;5.734;2023-11-18T04:08:13;7.03;;;4.65;;
55288;SDS011;41154;45.394;5.734;2023-11-18T04:11:38;7.85;;;5.15;;
55288;SDS011;41154;45.394;5.734;2023-11-18T04:15:03;10.30;;;4.60;;
55288;SDS011;41154;45.394;5.734;2023-11-18T04:18:28;10.90;;;5.10;;
55288;SDS011;41154;45.394;5.734;2023-11-18T04:21:53;11.43;;;4.57;;
55288;SDS011;41154;45.394;5.734;2023-11-18T04:25:17;8.75;;;4.78;;
55288;SDS011;41154;45.394;5.734;2023-11-18T04:28:41;10.63;;;5.53;;
55288;SDS011;41154;45.394;5.734;2023-11-18T04:32:06;7.90;;;5.03;;
55288;SDS011;41154;45.394;5.734;2023-11-18T04:35:30;9.13;;;5.30;;
55288;SDS011;41154;45.394;5.734;2023-11-18T04:38:56;9.43;;;5.22;;
55288;SDS011;41154;45.394;5.734;2023-11-18T04:42:21;9.32;;;5.15;;
55288;SDS011;41154;45.394;5.734;2023-11-18T04:45:45;12.82;;;5.05;;
55288;SDS011;41154;45.394;5.734;2023-11-18T04:49:10;8.43;;;5.07;;
55288;SDS011;41154;45.394;5.734;2023-11-18T04:52:35;7.65;;;4.47;;
55288;SDS011;41154;45.394;5.734;2023-11-18T04:55:59;9.93;;;4.47;;
55288;SDS011;41154;45.394;5.734;2023-11-18T04:59:24;10.23;;;4.55;;
55288;SDS011;41154;45.394;5.734;2023-11-18T05:02:48;5.93;;;3.40;;
55288;SDS011;41154;45.394;5.734;2023-11-18T05:06:12;5.20;;;3.40;;
55288;SDS011;41154;45.394;5.734;2023-11-18T05:09:36;5.90;;;3.83;;
55288;SDS011;41154;45.394;5.734;2023-11-18T05:13:01;7.03;;;4.00;;
55288;SDS011;41154;45.394;5.734;2023-11-18T05:16:27;10.52;;;5.40;;
55288;SDS011;41154;45.394;5.734;2023-11-18T05:19:51;9.23;;;4.15;;
55288;SDS011;41154;45.394;5.734;2023-11-18T05:23:16;8.85;;;4.30;;
55288;SDS011;41154;45.394;5.734;2023-11-18T05:26:40;6.00;;;3.88;;
55288;SDS011;41154;45.394;5.734;2023-11-18T05:30:08;10.10;;;4.18;;
55288;SDS011;41154;45.394;5.734;2023-11-18T05:33:33;10.48;;;5.13;;
55288;SDS011;41154;45.394;5.734;2023-11-18T05:36:57;11.60;;;4.93;;
55288;SDS011;41154;45.394;5.734;2023-11-18T05:40:21;12.48;;;5.00;;
55288;SDS011;41154;45.394;5.734;2023-11-18T05:43:53;9.27;;;4.97;;
55288;SDS011;41154;45.394;5.734;2023-11-18T05:47:27;6.82;;;4.35;;
55288;SDS011;41154;45.394;5.734;2023-11-18T05:50:51;6.95;;;3.95;;
55288;SDS011;41154;45.394;5.734;2023-11-18T05:54:17;10.82;;;4.43;;
55288;SDS011;41154;45.394;5.734;2023-11-18T05:57:41;7.90;;;4.72;;
55288;SDS011;41154;45.394;5.734;2023-11-18T06:01:06;10.45;;;5.63;;
55288;SDS011;41154;45.394;5.734;2023-11-18T06:04:30;18.35;;;6.30;;
55288;SDS011;41154;45.394;5.734;2023-11-18T06:08:00;10.18;;;4.50;;
55288;SDS011;41154;45.394;5.734;2023-11-18T06:11:30;9.90;;;5.00;;
55288;SDS011;41154;45.394;5.734;2023-11-18T06:14:55;9.52;;;4.93;;
55288;SDS011;41154;45.394;5.734;2023-11-18T06:18:20;7.30;;;4.28;;
55288;SDS011;41154;45.394;5.734;2023-11-18T06:21:46;9.80;;;4.47;;
55288;SDS011;41154;45.394;5.734;2023-11-18T06:25:10;6.20;;;3.50;;
55288;SDS011;41154;45.394;5.734;2023-11-18T06:28:38;8.55;;;4.45;;
55288;SDS011;41154;45.394;5.734;2023-11-18T06:32:02;7.32;;;4.25;;
55288;SDS011;41154;45.394;5.734;2023-11-18T06:35:28;9.25;;;5.10;;
55288;SDS011;41154;45.394;5.734;2023-11-18T06:38:54;8.48;;;4.97;;
55288;SDS011;41154;45.394;5.734;2023-11-18T06:42:18;8.98;;;5.05;;
55288;SDS011;41154;45.394;5.734;2023-11-18T06:45:44;10.75;;;6.05;;
55288;SDS011;41154;45.394;5.734;2023-11-18T06:49:08;15.68;;;5.30;;
55288;SDS011;41154;45.394;5.734;2023-11-18T06:52:36;9.40;;;4.80;;
55288;SDS011;41154;45.394;5.734;2023-11-18T06:56:00;12.48;;;5.10;;
55288;SDS011;41154;45.394;5.734;2023-11-18T06:59:25;9.38;;;4.78;;
55288;SDS011;41154;45.394;5.734;2023-11-18T07:02:53;11.73;;;5.30;;
55288;SDS011;41154;45.394;5.734;2023-11-18T07:06:18;8.85;;;4.60;;
55288;SDS011;41154;45.394;5.734;2023-11-18T07:09:42;12.13;;;5.05;;
55288;SDS011;41154;45.394;5.734;2023-11-18T07:13:07;8.57;;;4.75;;
55288;SDS011;41154;45.394;5.734;2023-11-18T07:16:34;9.40;;;5.53;;
55288;SDS011;41154;45.394;5.734;2023-11-18T07:20:00;18.48;;;6.40;;
55288;SDS011;41154;45.394;5.734;2023-11-18T07:23:24;9.88;;;4.90;;
55288;SDS011;41154;45.394;5.734;2023-11-18T07:26:48;10.32;;;4.65;;
55288;SDS011;41154;45.394;5.734;2023-11-18T07:30:13;10.55;;;5.70;;
55288;SDS011;41154;45.394;5.734;2023-11-18T07:33:37;7.10;;;4.47;;
55288;SDS011;41154;45.394;5.734;2023-11-18T07:37:03;9.05;;;4.53;;
55288;SDS011;41154;45.394;5.734;2023-11-18T07:40:27;17.73;;;8.18;;
55288;SDS011;41154;45.394;5.734;2023-11-18T07:43:53;11.88;;;7.30;;
55288;SDS011;41154;45.394;5.734;2023-11-18T07:47:18;20.75;;;9.68;;
55288;SDS011;41154;45.394;5.734;2023-11-18T07:50:42;27.88;;;10.05;;
55288;SDS011;41154;45.394;5.734;2023-11-18T07:54:07;15.52;;;7.43;;
55288;SDS011;41154;45.394;5.734;2023-11-18T07:57:35;14.52;;;6.97;;
55288;SDS011;41154;45.394;5.734;2023-11-18T08:01:03;11.77;;;6.38;;
55288;SDS011;41154;45.394;5.734;2023-11-18T08:04:30;10.75;;;6.28;;
55288;SDS011;41154;45.394;5.734;2023-11-18T08:07:56;7.63;;;5.35;;
55288;SDS011;41154;45.394;5.734;2023-11-18T08:11:22;13.52;;;4.80;;
55288;SDS011;41154;45.394;5.734;2023-11-18T08:14:47;10.10;;;5.90;;
55288;SDS011;41154;45.394;5.734;2023-11-18T08:18:11;9.55;;;5.38;;
55288;SDS011;41154;45.394;5.734;2023-11-18T08:21:35;10.85;;;5.50;;
55288;SDS011;41154;45.394;5.734;2023-11-18T08:24:59;11.15;;;6.25;;
55288;SDS011;41154;45.394;5.734;2023-11-18T08:28:24;8.45;;;5.50;;
55288;SDS011;41154;45.394;5.734;2023-11-18T08:31:49;6.85;;;4.28;;
55288;SDS011;41154;45.394;5.734;2023-11-18T08:35:14;10.07;;;5.80;;
55288;SDS011;41154;45.394;5.734;2023-11-18T08:38:38;10.35;;;6.85;;
55288;SDS011;41154;45.394;5.734;2023-11-18T08:42:02;11.10;;;5.90;;
55288;SDS011;41154;45.394;5.734;2023-11-18T08:45:30;9.32;;;4.78;;
55288;SDS011;41154;45.394;5.734;2023-11-18T08:48:54;9.32;;;5.80;;
55288;SDS011;41154;45.394;5.734;2023-11-18T08:52:20;11.52;;;5.68;;
55288;SDS011;41154;45.394;5.734;2023-11-18T08:55:51;11.43;;;5.68;;
55288;SDS011;41154;45.394;5.734;2023-11-18T08:59:20;12.23;;;6.57;;
55288;SDS011;41154;45.394;5.734;2023-11-18T09:03:04;7.75;;;4.90;;
55288;SDS011;41154;45.394;5.734;2023-11-18T09:06:28;9.90;;;5.78;;
55288;SDS011;41154;45.394;5.734;2023-11-18T09:09:53;7.38;;;4.75;;
55288;SDS011;41154;45.394;5.734;2023-11-18T09:13:20;8.63;;;4.88;;
55288;SDS011;41154;45.394;5.734;2023-11-18T09:16:45;8.80;;;4.90;;
55288;SDS011;41154;45.394;5.734;2023-11-18T09:20:09;9.88;;;5.95;;
55288;SDS011;41154;45.394;5.734;2023-11-18T09:23:39;7.55;;;4.57;;
55288;SDS011;41154;45.394;5.734;2023-11-18T09:27:04;6.95;;;3.50;;
55288;SDS011;41154;45.394;5.734;2023-11-18T09:30:28;6.10;;;3.83;;
55288;SDS011;41154;45.394;5.734;2023-11-18T09:33:52;7.10;;;3.70;;
55288;SDS011;41154;45.394;5.734;2023-11-18T09:37:18;6.95;;;3.95;;
55288;SDS011;41154;45.394;5.734;2023-11-18T09:40:42;7.38;;;4.43;;
55288;SDS011;41154;45.394;5.734;2023-11-18T09:44:07;6.00;;;3.80;;
55288;SDS011;41154;45.394;5.734;2023-11-18T09:47:36;5.25;;;3.40;;
55288;SDS011;41154;45.394;5.734;2023-11-18T09:51:06;4.07;;;2.88;;
55288;SDS011;41154;45.394;5.734;2023-11-18T09:58:15;14.40;;;8.05;;
55288;SDS011;41154;45.394;5.734;2023-11-18T10:01:53;43.20;;;19.27;;
55288;SDS011;41154;45.394;5.734;2023-11-18T10:05:21;4.40;;;2.67;;
55288;SDS011;41154;45.394;5.734;2023-11-18T10:08:47;6.05;;;3.13;;
55288;SDS011;41154;45.394;5.734;2023-11-18T10:15:49;9.35;;;4.95;;
55288;SDS011;41154;45.394;5.734;2023-11-18T10:19:14;11.63;;;6.20;;
55288;SDS011;41154;45.394;5.734;2023-11-18T10:22:39;10.10;;;5.57;;
55288;SDS011;41154;45.394;5.734;2023-11-18T10:26:04;9.13;;;5.18;;
55288;SDS011;41154;45.394;5.734;2023-11-18T10:29:33;7.88;;;5.82;;
55288;SDS011;41154;45.394;5.734;2023-11-18T10:33:07;8.02;;;5.13;;
55288;SDS011;41154;45.394;5.734;2023-11-18T10:36:32;7.78;;;4.25;;
55288;SDS011;41154;45.394;5.734;2023-11-18T10:39:57;9.05;;;4.60;;
55288;SDS011;41154;45.394;5.734;2023-11-18T10:43:22;7.55;;;4.95;;
55288;SDS011;41154;45.394;5.734;2023-11-18T10:46:52;11.02;;;5.45;;
55288;SDS011;41154;45.394;5.734;2023-11-18T10:50:17;26.65;;;13.13;;
55288;SDS011;41154;45.394;5.734;2023-11-18T10:53:52;31.27;;;14.38;;
55288;SDS011;41154;45.394;5.734;2023-11-18T10:57:20;7.72;;;4.65;;
55288;SDS011;41154;45.394;5.734;2023-11-18T11:00:50;5.45;;;3.97;;
55288;SDS011;41154;45.394;5.734;2023-11-18T11:04:15;5.15;;;3.03;;
55288;SDS011;41154;45.394;5.734;2023-11-18T11:07:58;5.85;;;3.78;;
55288;SDS011;41154;45.394;5.734;2023-11-18T11:11:26;4.93;;;3.08;;
55288;SDS011;41154;45.394;5.734;2023-11-18T11:14:57;12.43;;;9.52;;
55288;SDS011;41154;45.394;5.734;2023-11-18T11:18:23;10.23;;;7.47;;
55288;SDS011;41154;45.394;5.734;2023-11-18T11:22:01;4.78;;;2.65;;
55288;SDS011;41154;45.394;5.734;2023-11-18T11:29:57;7.13;;;2.78;;
55288;SDS011;41154;45.394;5.734;2023-11-18T11:34:24;6.28;;;3.20;;
55288;SDS011;41154;45.394;5.734;2023-11-18T11:37:33;3.38;;;2.20;;
55288;SDS011;41154;45.394;5.734;2023-11-18T11:40:58;3.88;;;2.33;;
55288;SDS011;41154;45.394;5.734;2023-11-18T11:44:24;2.97;;;2.00;;
55288;SDS011;41154;45.394;5.734;2023-11-18T11:47:54;13.95;;;8.77;;
55288;SDS011;41154;45.394;5.734;2023-11-18T11:51:28;8.35;;;4.40;;
55288;SDS011;41154;45.394;5.734;2023-11-18T11:56:03;3.10;;;2.25;;
55288;SDS011;41154;45.394;5.734;2023-11-18T11:59:06;3.22;;;2.10;;
55288;SDS011;41154;45.394;5.734;2023-11-18T12:02:47;8.55;;;4.50;;
55288;SDS011;41154;45.394;5.734;2023-11-18T12:06:17;4.43;;;2.70;;
55288;SDS011;41154;45.394;5.734;2023-11-18T12:09:41;5.15;;;1.77;;
55288;SDS011;41154;45.394;5.734;2023-11-18T12:13:16;2.97;;;2.00;;
55288;SDS011;41154;45.394;5.734;2023-11-18T12:20:41;6.20;;;3.13;;
55288;SDS011;41154;45.394;5.734;2023-11-18T12:24:21;6.55;;;3.63;;
55288;SDS011;41154;45.394;5.734;2023-11-18T12:27:47;7.45;;;4.03;;
55288;SDS011;41154;45.394;5.734;2023-11-18T12:31:11;11.45;;;6.00;;
55288;SDS011;41154;45.394;5.734;2023-11-18T12:34:51;10.52;;;5.57;;
55288;SDS011;41154;45.394;5.734;2023-11-18T12:42:06;10.55;;;7.70;;
55288;SDS011;41154;45.394;5.734;2023-11-18T12:45:41;6.95;;;4.82;;
55288;SDS011;41154;45.394;5.734;2023-11-18T12:49:07;5.13;;;3.80;;
55288;SDS011;41154;45.394;5.734;2023-11-18T12:52:42;4.35;;;2.65;;
55288;SDS011;41154;45.394;5.734;2023-11-18T12:56:06;4.50;;;2.40;;
55288;SDS011;41154;45.394;5.734;2023-11-18T12:59:34;3.67;;;2.78;;
55288;SDS011;41154;45.394;5.734;2023-11-18T13:03:01;5.57;;;3.83;;
55288;SDS011;41154;45.394;5.734;2023-11-18T13:06:26;7.20;;;3.97;;
55288;SDS011;41154;45.394;5.734;2023-11-18T13:09:51;7.38;;;3.78;;
55288;SDS011;41154;45.394;5.734;2023-11-18T13:13:15;5.80;;;3.28;;
55288;SDS011;41154;45.394;5.734;2023-11-18T13:16:40;6.15;;;3.97;;
55288;SDS011;41154;45.394;5.734;2023-11-18T13:20:12;4.90;;;3.33;;
55288;SDS011;41154;45.394;5.734;2023-11-18T13:23:41;7.43;;;4.22;;
55288;SDS011;41154;45.394;5.734;2023-11-18T13:27:09;5.75;;;3.72;;
55288;SDS011;41154;45.394;5.734;2023-11-18T13:30:35;8.25;;;3.92;;
55288;SDS011;41154;45.394;5.734;2023-11-18T13:33:59;6.03;;;3.70;;
55288;SDS011;41154;45.394;5.734;2023-11-18T13:37:26;6.40;;;3.30;;
55288;SDS011;41154;45.394;5.734;2023-11-18T13:40:51;4.63;;;3.58;;
55288;SDS011;41154;45.394;5.734;2023-11-18T13:47:59;7.80;;;4.30;;
55288;SDS011;41154;45.394;5.734;2023-11-18T13:51:24;4.78;;;3.72;;
55288;SDS011;41154;45.394;5.734;2023-11-18T13:54:50;4.75;;;3.10;;
55288;SDS011;41154;45.394;5.734;2023-11-18T13:58:15;4.10;;;3.03;;
55288;SDS011;41154;45.394;5.734;2023-11-18T14:01:40;5.30;;;2.63;;
55288;SDS011;41154;45.394;5.734;2023-11-18T14:05:05;3.83;;;2.45;;
55288;SDS011;41154;45.394;5.734;2023-11-18T14:08:39;5.35;;;3.05;;
55288;SDS011;41154;45.394;5.734;2023-11-18T14:12:06;3.70;;;2.78;;
55288;SDS011;41154;45.394;5.734;2023-11-18T14:15:42;4.35;;;2.55;;
55288;SDS011;41154;45.394;5.734;2023-11-18T14:19:06;3.10;;;2.45;;
55288;SDS011;41154;45.394;5.734;2023-11-18T14:22:32;3.83;;;2.70;;
55288;SDS011;41154;45.394;5.734;2023-11-18T14:25:56;5.95;;;3.05;;
55288;SDS011;41154;45.394;5.734;2023-11-18T14:29:21;4.93;;;2.90;;
55288;SDS011;41154;45.394;5.734;2023-11-18T14:32:50;4.70;;;3.20;;
55288;SDS011;41154;45.394;5.734;2023-11-18T14:36:14;4.35;;;2.30;;
55288;SDS011;41154;45.394;5.734;2023-11-18T14:39:38;2.97;;;2.40;;
55288;SDS011;41154;45.394;5.734;2023-11-18T14:43:03;2.60;;;1.90;;
55288;SDS011;41154;45.394;5.734;2023-11-18T14:46:32;3.85;;;2.38;;
55288;SDS011;41154;45.394;5.734;2023-11-18T14:49:57;3.45;;;2.28;;
55288;SDS011;41154;45.394;5.734;2023-11-18T14:53:22;4.30;;;2.80;;
55288;SDS011;41154;45.394;5.734;2023-11-18T14:56:46;3.55;;;2.22;;
55288;SDS011;41154;45.394;5.734;2023-11-18T15:00:12;5.80;;;2.67;;
55288;SDS011;41154;45.394;5.734;2023-11-18T15:03:36;4.35;;;2.05;;
55288;SDS011;41154;45.394;5.734;2023-11-18T15:07:01;2.35;;;1.77;;
55288;SDS011;41154;45.394;5.734;2023-11-18T15:10:26;2.58;;;1.80;;
55288;SDS011;41154;45.394;5.734;2023-11-18T15:13:51;3.83;;;2.10;;
55288;SDS011;41154;45.394;5.734;2023-11-18T15:17:16;4.80;;;2.60;;
55288;SDS011;41154;45.394;5.734;2023-11-18T15:24:07;4.60;;;2.40;;
55288;SDS011;41154;45.394;5.734;2023-11-18T15:27:35;4.63;;;2.95;;
55288;SDS011;41154;45.394;5.734;2023-11-18T15:31:00;3.70;;;2.55;;
55288;SDS011;41154;45.394;5.734;2023-11-18T15:34:24;4.38;;;2.40;;
55288;SDS011;41154;45.394;5.734;2023-11-18T15:37:49;4.88;;;3.20;;
55288;SDS011;41154;45.394;5.734;2023-11-18T15:41:13;4.60;;;3.00;;
55288;SDS011;41154;45.394;5.734;2023-11-18T15:44:39;4.93;;;3.33;;
55288;SDS011;41154;45.394;5.734;2023-11-18T15:48:03;5.95;;;3.33;;
55288;SDS011;41154;45.394;5.734;2023-11-18T15:51:27;5.93;;;3.95;;
55288;SDS011;41154;45.394;5.734;2023-11-18T15:54:54;7.25;;;3.92;;
55288;SDS011;41154;45.394;5.734;2023-11-18T15:58:18;5.50;;;3.70;;
55288;SDS011;41154;45.394;5.734;2023-11-18T16:01:42;6.03;;;3.88;;
55288;SDS011;41154;45.394;5.734;2023-11-18T16:05:08;7.15;;;4.28;;
55288;SDS011;41154;45.394;5.734;2023-11-18T16:08:32;7.55;;;4.65;;
55288;SDS011;41154;45.394;5.734;2023-11-18T16:11:57;6.07;;;3.90;;
55288;SDS011;41154;45.394;5.734;2023-11-18T16:15:25;7.32;;;4.32;;
55288;SDS011;41154;45.394;5.734;2023-11-18T16:18:52;7.70;;;4.60;;
55288;SDS011;41154;45.394;5.734;2023-11-18T16:22:16;98.90;;;26.83;;
55288;SDS011;41154;45.394;5.734;2023-11-18T16:25:40;16.95;;;7.60;;
55288;SDS011;41154;45.394;5.734;2023-11-18T16:29:06;12.18;;;6.45;;
55288;SDS011;41154;45.394;5.734;2023-11-18T16:32:31;11.70;;;6.53;;
55288;SDS011;41154;45.394;5.734;2023-11-18T16:35:55;10.88;;;6.13;;
55288;SDS011;41154;45.394;5.734;2023-11-18T16:39:22;20.10;;;8.68;;
55288;SDS011;41154;45.394;5.734;2023-11-18T16:42:52;13.57;;;7.63;;
55288;SDS011;41154;45.394;5.734;2023-11-18T16:46:17;7.22;;;4.30;;
55288;SDS011;41154;45.394;5.734;2023-11-18T16:49:42;11.80;;;5.95;;
55288;SDS011;41154;45.394;5.734;2023-11-18T16:53:06;7.97;;;5.40;;
55288;SDS011;41154;45.394;5.734;2023-11-18T16:56:31;9.65;;;6.03;;
55288;SDS011;41154;45.394;5.734;2023-11-18T16:59:56;7.55;;;5.30;;
55288;SDS011;41154;45.394;5.734;2023-11-18T17:03:20;9.85;;;5.80;;
55288;SDS011;41154;45.394;5.734;2023-11-18T17:06:45;8.57;;;5.72;;
55288;SDS011;41154;45.394;5.734;2023-11-18T17:10:09;8.00;;;5.15;;
55288;SDS011;41154;45.394;5.734;2023-11-18T17:13:34;12.18;;;6.38;;
55288;SDS011;41154;45.394;5.734;2023-11-18T17:16:59;12.02;;;6.20;;
55288;SDS011;41154;45.394;5.734;2023-11-18T17:20:26;8.50;;;5.43;;
55288;SDS011;41154;45.394;5.734;2023-11-18T17:23:52;8.68;;;5.65;;
55288;SDS011;41154;45.394;5.734;2023-11-18T17:27:16;12.98;;;5.40;;
55288;SDS011;41154;45.394;5.734;2023-11-18T17:30:43;9.05;;;6.22;;
55288;SDS011;41154;45.394;5.734;2023-11-18T17:34:08;11.05;;;6.47;;
55288;SDS011;41154;45.394;5.734;2023-11-18T17:37:37;11.63;;;6.05;;
55288;SDS011;41154;45.394;5.734;2023-11-18T17:41:01;11.07;;;6.32;;
55288;SDS011;41154;45.394;5.734;2023-11-18T17:44:28;23.70;;;13.50;;
55288;SDS011;41154;45.394;5.734;2023-11-18T17:47:53;21.90;;;11.20;;
55288;SDS011;41154;45.394;5.734;2023-11-18T17:51:17;28.05;;;15.45;;
55288;SDS011;41154;45.394;5.734;2023-11-18T17:54:41;22.05;;;12.38;;
55288;SDS011;41154;45.394;5.734;2023-11-18T17:58:05;17.63;;;10.15;;
55288;SDS011;41154;45.394;5.734;2023-11-18T18:01:29;18.73;;;10.32;;
55288;SDS011;41154;45.394;5.734;2023-11-18T18:04:53;19.42;;;10.18;;
55288;SDS011;41154;45.394;5.734;2023-11-18T18:08:17;11.98;;;7.05;;
55288;SDS011;41154;45.394;5.734;2023-11-18T18:11:43;15.43;;;7.85;;
55288;SDS011;41154;45.394;5.734;2023-11-18T18:15:11;13.50;;;7.70;;
55288;SDS011;41154;45.394;5.734;2023-11-18T18:18:36;14.10;;;8.18;;
55288;SDS011;41154;45.394;5.734;2023-11-18T18:22:01;13.93;;;8.05;;
55288;SDS011;41154;45.394;5.734;2023-11-18T18:25:26;18.88;;;10.88;;
55288;SDS011;41154;45.394;5.734;2023-11-18T18:28:50;15.68;;;9.30;;
55288;SDS011;41154;45.394;5.734;2023-11-18T18:32:14;16.77;;;9.13;;
55288;SDS011;41154;45.394;5.734;2023-11-18T18:35:39;18.25;;;11.25;;
55288;SDS011;41154;45.394;5.734;2023-11-18T18:39:04;13.07;;;8.75;;
55288;SDS011;41154;45.394;5.734;2023-11-18T18:42:30;15.68;;;9.82;;
55288;SDS011;41154;45.394;5.734;2023-11-18T18:45:54;13.38;;;8.15;;
55288;SDS011;41154;45.394;5.734;2023-11-18T18:49:20;14.63;;;7.93;;
55288;SDS011;41154;45.394;5.734;2023-11-18T18:52:44;14.38;;;8.07;;
55288;SDS011;41154;45.394;5.734;2023-11-18T18:56:08;12.90;;;8.30;;
55288;SDS011;41154;45.394;5.734;2023-11-18T18:59:33;20.15;;;11.07;;
55288;SDS011;41154;45.394;5.734;2023-11-18T19:02:57;17.63;;;9.80;;
55288;SDS011;41154;45.394;5.734;2023-11-18T19:06:22;14.57;;;7.63;;
55288;SDS011;41154;45.394;5.734;2023-11-18T19:09:46;19.05;;;12.20;;
55288;SDS011;41154;45.394;5.734;2023-11-18T19:13:10;20.65;;;10.98;;
55288;SDS011;41154;45.394;5.734;2023-11-18T19:16:35;19.67;;;11.73;;
55288;SDS011;41154;45.394;5.734;2023-11-18T19:20:02;29.27;;;13.52;;
55288;SDS011;41154;45.394;5.734;2023-11-18T19:23:30;25.35;;;13.57;;
55288;SDS011;41154;45.394;5.734;2023-11-18T19:26:55;32.17;;;18.75;;
55288;SDS011;41154;45.394;5.734;2023-11-18T19:30:20;27.27;;;13.55;;
55288;SDS011;41154;45.394;5.734;2023-11-18T19:33:44;21.58;;;12.57;;
55288;SDS011;41154;45.394;5.734;2023-11-18T19:37:08;22.65;;;12.95;;
55288;SDS011;41154;45.394;5.734;2023-11-18T19:40:33;30.58;;;17.10;;
55288;SDS011;41154;45.394;5.734;2023-11-18T19:43:57;31.42;;;17.60;;
55288;SDS011;41154;45.394;5.734;2023-11-18T19:47:21;20.42;;;12.27;;
55288;SDS011;41154;45.394;5.734;2023-11-18T19:50:45;19.52;;;11.55;;
55288;SDS011;41154;45.394;5.734;2023-11-18T19:54:11;22.73;;;13.68;;
55288;SDS011;41154;45.394;5.734;2023-11-18T19:57:35;22.83;;;13.45;;
55288;SDS011;41154;45.394;5.734;2023-11-18T20:00:59;24.13;;;13.05;;
55288;SDS011;41154;45.394;5.734;2023-11-18T20:04:24;20.83;;;12.23;;
55288;SDS011;41154;45.394;5.734;2023-11-18T20:07:51;30.83;;;16.08;;
55288;SDS011;41154;45.394;5.734;2023-11-18T20:11:15;28.65;;;17.45;;
55288;SDS011;41154;45.394;5.734;2023-11-18T20:14:39;30.52;;;17.30;;
55288;SDS011;41154;45.394;5.734;2023-11-18T20:18:04;18.02;;;11.52;;
55288;SDS011;41154;45.394;5.734;2023-11-18T20:21:28;21.55;;;12.05;;
55288;SDS011;41154;45.394;5.734;2023-11-18T20:24:52;16.55;;;9.18;;
55288;SDS011;41154;45.394;5.734;2023-11-18T20:28:17;18.38;;;10.68;;
55288;SDS011;41154;45.394;5.734;2023-11-18T20:31:41;19.55;;;11.40;;
55288;SDS011;41154;45.394;5.734;2023-11-18T20:35:06;22.30;;;11.65;;
55288;SDS011;41154;45.394;5.734;2023-11-18T20:38:31;21.52;;;10.77;;
55288;SDS011;41154;45.394;5.734;2023-11-18T20:41:55;18.05;;;10.68;;
55288;SDS011;41154;45.394;5.734;2023-11-18T20:45:19;20.65;;;10.93;;
55288;SDS011;41154;45.394;5.734;2023-11-18T20:48:43;18.00;;;10.98;;
55288;SDS011;41154;45.394;5.734;2023-11-18T20:52:07;19.42;;;10.55;;
55288;SDS011;41154;45.394;5.734;2023-11-18T20:55:32;24.25;;;13.95;;
55288;SDS011;41154;45.394;5.734;2023-11-18T20:58:57;28.80;;;15.32;;